PWSweather.com
Personal Weather Stations
Station Observations
KIDJEROME
Sse Jerome Butte , Jerome, ID 83338

Sse Jerome Butte Jerome, ID 83338

Lat: 42.6981891, Lon: -114.4041362

Elevation: 3960

Station Type: Davis Vantage Pro 2

High Low Average
Temperature 43.9°F6.6°C 24.1°F-4.4°C 33.3°F0.7°C
Dew Point 30.2°F-1.0°C 20.8°F-6.2°C 26.2°F-3.2°C
Winds 11.0 mph 17.7 kmh Calm Calm 2.0 mph SE3.2 kmh SE
Wind Gusts 18.0 mph29.0 kmh -- 5.0 mph8.0 kmh
Humidity 97% 50% 76%
Pressure 30.47 in1031.8 mb 30.17 in1021.7 mb -
Precipitation 0.34 in8.6 mm - -
Hour Temp Dew Point Humidity Winds Wind Gusts Pressure Precip Precip Rate Daily Precip Total
12:00 AM 31.0°F-0.6°C 30.0°F-1.1°C 96% 10.0 mph ESE16.1 kmh ESE 17.0 mph27.4 kmh 30.17 in1021.7 mb 0.00 in0.0 mm 0.00 in0.0 mm 0.00 in0.0 mm
12:15 AM 31.0°F-0.6°C 30.0°F-1.1°C 96% 11.0 mph SE17.7 kmh SE 15.0 mph24.1 kmh 30.18 in1022.0 mb 0.00 in0.0 mm 0.00 in0.0 mm 0.00 in0.0 mm
12:30 AM 31.0°F-0.6°C 30.2°F-1.0°C 97% 11.0 mph ESE17.7 kmh ESE 16.0 mph25.7 kmh 30.18 in1022.0 mb 0.00 in0.0 mm 0.00 in0.0 mm 0.00 in0.0 mm
12:45 AM 30.9°F-0.6°C 30.1°F-1.1°C 97% 10.0 mph SE16.1 kmh SE 13.0 mph20.9 kmh 30.19 in1022.4 mb 0.00 in0.0 mm 0.00 in0.0 mm 0.00 in0.0 mm
01:00 AM 30.8°F-0.7°C 30.0°F-1.1°C 97% 11.0 mph ESE17.7 kmh ESE 18.0 mph29.0 kmh 30.17 in1021.7 mb 0.00 in0.0 mm 0.00 in0.0 mm 0.00 in0.0 mm
01:15 AM 30.9°F-0.6°C 29.9°F-1.2°C 96% 10.0 mph SE16.1 kmh SE 13.0 mph20.9 kmh 30.18 in1022.0 mb 0.01 in0.3 mm 0.04 in1.0 mm 0.01 in0.3 mm
01:30 AM 31.0°F-0.6°C 30.0°F-1.1°C 96% 9.0 mph E14.5 kmh E 16.0 mph25.7 kmh 30.19 in1022.4 mb 0.01 in0.3 mm 0.00 in0.0 mm 0.01 in0.3 mm
01:45 AM 31.2°F-0.4°C 29.9°F-1.2°C 95% 8.0 mph ESE12.9 kmh ESE 10.0 mph16.1 kmh 30.18 in1022.0 mb 0.01 in0.3 mm 0.00 in0.0 mm 0.01 in0.3 mm
02:00 AM 31.3°F-0.4°C 29.8°F-1.2°C 94% 4.0 mph SE6.4 kmh SE 5.0 mph8.0 kmh 30.18 in1022.0 mb 0.01 in0.3 mm 0.00 in0.0 mm 0.01 in0.3 mm
02:15 AM 31.2°F-0.4°C 29.7°F-1.3°C 94% 1.0 mph SE1.6 kmh SE 10.0 mph16.1 kmh 30.19 in1022.4 mb 0.00 in0.0 mm 0.00 in0.0 mm 0.01 in0.3 mm
02:30 AM 31.7°F-0.2°C 29.9°F-1.2°C 93% 6.0 mph SE9.7 kmh SE 10.0 mph16.1 kmh 30.19 in1022.4 mb 0.00 in0.0 mm 0.00 in0.0 mm 0.01 in0.3 mm
02:45 AM 31.7°F-0.2°C 29.6°F-1.3°C 92% 8.0 mph SE12.9 kmh SE 11.0 mph17.7 kmh 30.20 in1022.7 mb 0.00 in0.0 mm 0.00 in0.0 mm 0.01 in0.3 mm
03:00 AM 31.6°F-0.2°C 29.5°F-1.4°C 92% 4.0 mph ESE6.4 kmh ESE 7.0 mph11.3 kmh 30.21 in1023.0 mb 0.00 in0.0 mm 0.00 in0.0 mm 0.01 in0.3 mm
03:15 AM 31.5°F-0.3°C 29.4°F-1.4°C 92% 2.0 mph SE3.2 kmh SE 4.0 mph6.4 kmh 30.22 in1023.4 mb 0.00 in0.0 mm 0.00 in0.0 mm 0.01 in0.3 mm
03:30 AM 31.5°F-0.3°C 29.2°F-1.6°C 91% 3.0 mph ESE4.8 kmh ESE 4.0 mph6.4 kmh 30.22 in1023.4 mb 0.00 in0.0 mm 0.00 in0.0 mm 0.01 in0.3 mm
03:45 AM 31.4°F-0.3°C 28.5°F-1.9°C 89% Calm Calm 1.0 mph1.6 kmh 30.21 in1023.0 mb 0.00 in0.0 mm 0.00 in0.0 mm 0.01 in0.3 mm
04:00 AM 30.9°F-0.6°C 27.5°F-2.5°C 87% Calm Calm -- 30.22 in1023.4 mb 0.00 in0.0 mm 0.00 in0.0 mm 0.01 in0.3 mm
04:15 AM 30.2°F-1.0°C 26.5°F-3.1°C 86% 1.0 mph E1.6 kmh E 3.0 mph4.8 kmh 30.23 in1023.7 mb 0.00 in0.0 mm 0.00 in0.0 mm 0.01 in0.3 mm
04:30 AM 30.3°F-0.9°C 26.3°F-3.2°C 85% 1.0 mph ENE1.6 kmh ENE 2.0 mph3.2 kmh 30.23 in1023.7 mb 0.00 in0.0 mm 0.00 in0.0 mm 0.01 in0.3 mm
04:45 AM 30.1°F-1.1°C 26.4°F-3.1°C 86% Calm Calm -- 30.23 in1023.7 mb 0.00 in0.0 mm 0.00 in0.0 mm 0.01 in0.3 mm
05:00 AM 29.1°F-1.6°C 25.2°F-3.8°C 85% Calm Calm -- 30.23 in1023.7 mb 0.00 in0.0 mm 0.00 in0.0 mm 0.01 in0.3 mm
05:15 AM 26.3°F-3.2°C 23.0°F-5.0°C 87% Calm Calm 3.0 mph4.8 kmh 30.24 in1024.0 mb 0.00 in0.0 mm 0.00 in0.0 mm 0.01 in0.3 mm
05:30 AM 27.2°F-2.7°C 24.7°F-4.1°C 90% 1.0 mph NE1.6 kmh NE 1.0 mph1.6 kmh 30.24 in1024.0 mb 0.00 in0.0 mm 0.00 in0.0 mm 0.01 in0.3 mm
05:45 AM 26.6°F-3.0°C 24.1°F-4.4°C 90% Calm Calm 1.0 mph1.6 kmh 30.25 in1024.4 mb 0.00 in0.0 mm 0.00 in0.0 mm 0.01 in0.3 mm
06:00 AM 26.9°F-2.8°C 24.4°F-4.2°C 90% Calm Calm -- 30.25 in1024.4 mb 0.00 in0.0 mm 0.00 in0.0 mm 0.01 in0.3 mm
06:15 AM 26.1°F-3.3°C 23.6°F-4.7°C 90% Calm Calm -- 30.25 in1024.4 mb 0.00 in0.0 mm 0.00 in0.0 mm 0.01 in0.3 mm
06:30 AM 24.8°F-4.0°C 22.0°F-5.6°C 89% Calm Calm -- 30.25 in1024.4 mb 0.00 in0.0 mm 0.00 in0.0 mm 0.01 in0.3 mm
06:45 AM 24.4°F-4.2°C 21.9°F-5.6°C 90% Calm Calm -- 30.27 in1025.1 mb 0.00 in0.0 mm 0.00 in0.0 mm 0.01 in0.3 mm
07:00 AM 25.7°F-3.5°C 23.2°F-4.9°C 90% 1.0 mph NE1.6 kmh NE 4.0 mph6.4 kmh 30.27 in1025.1 mb 0.00 in0.0 mm 0.00 in0.0 mm 0.01 in0.3 mm
07:15 AM 25.4°F-3.7°C 22.6°F-5.2°C 89% 1.0 mph ENE1.6 kmh ENE 3.0 mph4.8 kmh 30.28 in1025.4 mb 0.00 in0.0 mm 0.00 in0.0 mm 0.01 in0.3 mm
07:30 AM 25.8°F-3.4°C 22.7°F-5.2°C 88% 1.0 mph ENE1.6 kmh ENE 1.0 mph1.6 kmh 30.28 in1025.4 mb 0.00 in0.0 mm 0.00 in0.0 mm 0.01 in0.3 mm
07:45 AM 25.2°F-3.8°C 21.6°F-5.8°C 86% Calm Calm -- 30.29 in1025.7 mb 0.00 in0.0 mm 0.00 in0.0 mm 0.01 in0.3 mm
08:00 AM 24.1°F-4.4°C 20.8°F-6.2°C 87% Calm Calm -- 30.30 in1026.1 mb 0.00 in0.0 mm 0.00 in0.0 mm 0.01 in0.3 mm
08:15 AM 24.8°F-4.0°C 22.0°F-5.6°C 89% Calm Calm 2.0 mph3.2 kmh 30.30 in1026.1 mb 0.00 in0.0 mm 0.00 in0.0 mm 0.01 in0.3 mm
08:30 AM 26.2°F-3.2°C 23.1°F-4.9°C 88% 1.0 mph 1.6 kmh -- 30.31 in1026.4 mb 0.00 in0.0 mm 0.00 in0.0 mm 0.01 in0.3 mm
08:45 AM 26.9°F-2.8°C 23.3°F-4.8°C 86% Calm Calm -- 30.32 in1026.8 mb 0.00 in0.0 mm 0.00 in0.0 mm 0.01 in0.3 mm
09:00 AM 27.4°F-2.6°C 24.0°F-4.4°C 87% Calm Calm -- 30.33 in1027.1 mb 0.00 in0.0 mm 0.00 in0.0 mm 0.01 in0.3 mm
09:15 AM 27.8°F-2.3°C 24.4°F-4.2°C 87% 1.0 mph E1.6 kmh E 2.0 mph3.2 kmh 30.34 in1027.4 mb 0.00 in0.0 mm 0.00 in0.0 mm 0.01 in0.3 mm
09:30 AM 28.4°F-2.0°C 25.6°F-3.6°C 89% 1.0 mph ESE1.6 kmh ESE 4.0 mph6.4 kmh 30.34 in1027.4 mb 0.00 in0.0 mm 0.00 in0.0 mm 0.01 in0.3 mm
09:45 AM 28.8°F-1.8°C 25.7°F-3.5°C 88% 1.0 mph SE1.6 kmh SE 7.0 mph11.3 kmh 30.35 in1027.8 mb 0.00 in0.0 mm 0.00 in0.0 mm 0.01 in0.3 mm
10:00 AM 29.2°F-1.6°C 26.1°F-3.3°C 88% 3.0 mph E4.8 kmh E 4.0 mph6.4 kmh 30.36 in1028.1 mb 0.00 in0.0 mm 0.00 in0.0 mm 0.01 in0.3 mm
10:15 AM 30.2°F-1.0°C 27.1°F-2.7°C 88% 2.0 mph E3.2 kmh E 4.0 mph6.4 kmh 30.36 in1028.1 mb 0.00 in0.0 mm 0.00 in0.0 mm 0.01 in0.3 mm
10:30 AM 31.2°F-0.4°C 28.3°F-2.1°C 89% 3.0 mph ESE4.8 kmh ESE 6.0 mph9.7 kmh 30.37 in1028.4 mb 0.00 in0.0 mm 0.00 in0.0 mm 0.01 in0.3 mm
10:45 AM 32.5°F0.3°C 29.6°F-1.3°C 89% 1.0 mph SE1.6 kmh SE 5.0 mph8.0 kmh 30.38 in1028.8 mb 0.01 in0.3 mm 0.04 in1.0 mm 0.02 in0.5 mm
11:00 AM 33.0°F0.6°C 29.8°F-1.2°C 88% 2.0 mph SE3.2 kmh SE 4.0 mph6.4 kmh 30.38 in1028.8 mb 0.06 in1.5 mm 0.07 in1.8 mm 0.07 in1.8 mm
11:15 AM 33.9°F1.1°C 30.2°F-1.0°C 86% 3.0 mph E4.8 kmh E 8.0 mph12.9 kmh 30.39 in1029.1 mb 0.19 in4.8 mm 0.52 in13.2 mm 0.20 in5.1 mm
11:30 AM 35.2°F1.8°C 30.0°F-1.1°C 81% 4.0 mph ESE6.4 kmh ESE 7.0 mph11.3 kmh 30.39 in1029.1 mb 0.20 in5.1 mm 0.04 in1.0 mm 0.21 in5.3 mm
11:45 AM 35.7°F2.1°C 30.1°F-1.1°C 80% 3.0 mph E4.8 kmh E 7.0 mph11.3 kmh 30.39 in1029.1 mb 0.20 in5.1 mm 0.00 in0.0 mm 0.22 in5.6 mm
12:00 PM 36.2°F2.3°C 29.7°F-1.3°C 77% 3.0 mph SE4.8 kmh SE 8.0 mph12.9 kmh 30.39 in1029.1 mb 0.16 in4.1 mm 0.00 in0.0 mm 0.23 in5.8 mm
12:15 PM 36.5°F2.5°C 29.7°F-1.3°C 76% 3.0 mph ESE4.8 kmh ESE 8.0 mph12.9 kmh 30.39 in1029.1 mb 0.04 in1.0 mm 0.00 in0.0 mm 0.24 in6.1 mm
12:30 PM 37.1°F2.8°C 30.2°F-1.0°C 76% 3.0 mph SE4.8 kmh SE 7.0 mph11.3 kmh 30.39 in1029.1 mb 0.04 in1.0 mm 0.00 in0.0 mm 0.25 in6.4 mm
12:45 PM 37.5°F3.1°C 28.6°F-1.9°C 70% 2.0 mph SE3.2 kmh SE 7.0 mph11.3 kmh 30.39 in1029.1 mb 0.04 in1.0 mm 0.00 in0.0 mm 0.26 in6.6 mm
01:00 PM 38.2°F3.4°C 27.5°F-2.5°C 65% 3.0 mph SE4.8 kmh SE 5.0 mph8.0 kmh 30.39 in1029.1 mb 0.03 in0.8 mm 0.00 in0.0 mm 0.26 in6.6 mm
01:15 PM 38.6°F3.7°C 27.1°F-2.7°C 63% 2.0 mph ESE3.2 kmh ESE 7.0 mph11.3 kmh 30.39 in1029.1 mb 0.03 in0.8 mm 0.00 in0.0 mm 0.27 in6.9 mm
01:30 PM 39.1°F3.9°C 26.4°F-3.1°C 60% 2.0 mph E3.2 kmh E 6.0 mph9.7 kmh 30.39 in1029.1 mb 0.03 in0.8 mm 0.00 in0.0 mm 0.28 in7.1 mm
01:45 PM 39.6°F4.2°C 26.0°F-3.3°C 58% 3.0 mph S4.8 kmh S 6.0 mph9.7 kmh 30.39 in1029.1 mb 0.03 in0.8 mm 0.00 in0.0 mm 0.29 in7.4 mm
02:00 PM 40.2°F4.6°C 27.0°F-2.8°C 59% 3.0 mph SW4.8 kmh SW 8.0 mph12.9 kmh 30.39 in1029.1 mb 0.03 in0.8 mm 0.00 in0.0 mm 0.30 in7.6 mm
02:15 PM 41.1°F5.1°C 29.1°F-1.6°C 62% 3.0 mph NNW4.8 kmh NNW 5.0 mph8.0 kmh 30.38 in1028.8 mb 0.03 in0.8 mm 0.00 in0.0 mm 0.30 in7.6 mm
02:30 PM 41.2°F5.1°C 29.2°F-1.6°C 62% 3.0 mph WSW4.8 kmh WSW 11.0 mph17.7 kmh 30.38 in1028.8 mb 0.03 in0.8 mm 0.00 in0.0 mm 0.31 in7.9 mm
02:45 PM 41.1°F5.1°C 27.4°F-2.6°C 58% 5.0 mph SSW8.0 kmh SSW 7.0 mph11.3 kmh 30.38 in1028.8 mb 0.03 in0.8 mm 0.00 in0.0 mm 0.32 in8.1 mm
03:00 PM 41.7°F5.4°C 28.0°F-2.2°C 58% 6.0 mph W9.7 kmh W 11.0 mph17.7 kmh 30.38 in1028.8 mb 0.03 in0.8 mm 0.00 in0.0 mm 0.33 in8.4 mm
03:15 PM 41.9°F5.5°C 26.9°F-2.8°C 55% 3.0 mph WSW4.8 kmh WSW 9.0 mph14.5 kmh 30.37 in1028.4 mb 0.03 in0.8 mm 0.00 in0.0 mm 0.33 in8.4 mm
03:30 PM 42.3°F5.7°C 27.3°F-2.6°C 55% 5.0 mph SW8.0 kmh SW 11.0 mph17.7 kmh 30.38 in1028.8 mb 0.03 in0.8 mm 0.00 in0.0 mm 0.34 in8.6 mm
03:45 PM 42.5°F5.8°C 27.9°F-2.3°C 56% 5.0 mph SW8.0 kmh SW 10.0 mph16.1 kmh 30.37 in1028.4 mb 0.02 in0.5 mm 0.00 in0.0 mm 0.34 in8.6 mm
04:00 PM 42.9°F6.1°C 28.7°F-1.8°C 57% 5.0 mph WSW8.0 kmh WSW 9.0 mph14.5 kmh 30.38 in1028.8 mb 0.01 in0.3 mm 0.00 in0.0 mm 0.34 in8.6 mm
04:15 PM 43.1°F6.2°C 27.1°F-2.7°C 53% 5.0 mph WSW8.0 kmh WSW 11.0 mph17.7 kmh 30.38 in1028.8 mb 0.01 in0.3 mm 0.00 in0.0 mm 0.34 in8.6 mm
04:30 PM 43.0°F6.1°C 27.9°F-2.3°C 55% 5.0 mph W8.0 kmh W 12.0 mph19.3 kmh 30.38 in1028.8 mb 0.00 in0.0 mm 0.00 in0.0 mm 0.34 in8.6 mm
04:45 PM 43.3°F6.3°C 26.8°F-2.9°C 52% 6.0 mph W9.7 kmh W 10.0 mph16.1 kmh 30.38 in1028.8 mb 0.00 in0.0 mm 0.00 in0.0 mm 0.34 in8.6 mm
05:00 PM 43.4°F6.3°C 26.0°F-3.3°C 50% 5.0 mph WSW8.0 kmh WSW 13.0 mph20.9 kmh 30.38 in1028.8 mb 0.00 in0.0 mm 0.00 in0.0 mm 0.34 in8.6 mm
05:15 PM 43.7°F6.5°C 27.2°F-2.7°C 52% 5.0 mph SW8.0 kmh SW 9.0 mph14.5 kmh 30.38 in1028.8 mb 0.00 in0.0 mm 0.00 in0.0 mm 0.34 in8.6 mm
05:30 PM 43.9°F6.6°C 27.4°F-2.6°C 52% 5.0 mph WSW8.0 kmh WSW 9.0 mph14.5 kmh 30.39 in1029.1 mb 0.00 in0.0 mm 0.00 in0.0 mm 0.34 in8.6 mm
05:45 PM 43.5°F6.4°C 27.5°F-2.5°C 53% 4.0 mph WSW6.4 kmh WSW 9.0 mph14.5 kmh 30.38 in1028.8 mb 0.00 in0.0 mm 0.00 in0.0 mm 0.34 in8.6 mm
06:00 PM 43.4°F6.3°C 26.9°F-2.8°C 52% 4.0 mph WSW6.4 kmh WSW 8.0 mph12.9 kmh 30.39 in1029.1 mb 0.00 in0.0 mm 0.00 in0.0 mm 0.34 in8.6 mm
06:15 PM 43.0°F6.1°C 26.6°F-3.0°C 52% 5.0 mph WSW8.0 kmh WSW 8.0 mph12.9 kmh 30.39 in1029.1 mb 0.00 in0.0 mm 0.00 in0.0 mm 0.34 in8.6 mm
06:30 PM 42.6°F5.9°C 28.4°F-2.0°C 57% 4.0 mph SW6.4 kmh SW 5.0 mph8.0 kmh 30.39 in1029.1 mb 0.00 in0.0 mm 0.00 in0.0 mm 0.34 in8.6 mm
06:45 PM 41.0°F5.0°C 29.0°F-1.7°C 62% 2.0 mph SW3.2 kmh SW 5.0 mph8.0 kmh 30.39 in1029.1 mb 0.00 in0.0 mm 0.00 in0.0 mm 0.34 in8.6 mm
07:00 PM 37.1°F2.8°C 27.5°F-2.5°C 68% Calm Calm 1.0 mph1.6 kmh 30.40 in1029.5 mb 0.00 in0.0 mm 0.00 in0.0 mm 0.34 in8.6 mm
07:15 PM 35.0°F1.7°C 25.9°F-3.4°C 69% Calm Calm -- 30.41 in1029.8 mb 0.00 in0.0 mm 0.00 in0.0 mm 0.34 in8.6 mm
07:30 PM 34.5°F1.4°C 25.4°F-3.7°C 69% Calm Calm -- 30.41 in1029.8 mb 0.00 in0.0 mm 0.00 in0.0 mm 0.34 in8.6 mm
07:45 PM 34.4°F1.3°C 25.3°F-3.7°C 69% Calm Calm -- 30.41 in1029.8 mb 0.00 in0.0 mm 0.00 in0.0 mm 0.34 in8.6 mm
08:00 PM 33.8°F1.0°C 25.0°F-3.9°C 70% Calm Calm 1.0 mph1.6 kmh 30.41 in1029.8 mb 0.00 in0.0 mm 0.00 in0.0 mm 0.34 in8.6 mm
08:15 PM 33.5°F0.8°C 24.8°F-4.0°C 70% Calm Calm -- 30.43 in1030.5 mb 0.00 in0.0 mm 0.00 in0.0 mm 0.34 in8.6 mm
08:30 PM 32.9°F0.5°C 24.9°F-3.9°C 72% 1.0 mph WSW1.6 kmh WSW 4.0 mph6.4 kmh 30.43 in1030.5 mb 0.00 in0.0 mm 0.00 in0.0 mm 0.34 in8.6 mm
08:45 PM 32.4°F0.2°C 24.7°F-4.1°C 73% 1.0 mph WSW1.6 kmh WSW 1.0 mph1.6 kmh 30.43 in1030.5 mb 0.00 in0.0 mm 0.00 in0.0 mm 0.34 in8.6 mm
09:00 PM 32.8°F0.4°C 25.1°F-3.8°C 73% Calm Calm 2.0 mph3.2 kmh 30.43 in1030.5 mb 0.00 in0.0 mm 0.00 in0.0 mm 0.34 in8.6 mm
09:15 PM 32.7°F0.4°C 26.3°F-3.2°C 77% Calm Calm 1.0 mph1.6 kmh 30.43 in1030.5 mb 0.00 in0.0 mm 0.00 in0.0 mm 0.34 in8.6 mm
09:30 PM 32.1°F0.1°C 24.4°F-4.2°C 73% Calm Calm 1.0 mph1.6 kmh 30.43 in1030.5 mb 0.00 in0.0 mm 0.00 in0.0 mm 0.34 in8.6 mm
09:45 PM 32.5°F0.3°C 24.1°F-4.4°C 71% Calm Calm -- 30.44 in1030.8 mb 0.00 in0.0 mm 0.00 in0.0 mm 0.34 in8.6 mm
10:00 PM 31.7°F-0.2°C 23.4°F-4.8°C 71% Calm Calm 1.0 mph1.6 kmh 30.44 in1030.8 mb 0.00 in0.0 mm 0.00 in0.0 mm 0.34 in8.6 mm
10:15 PM 31.4°F-0.3°C 23.4°F-4.8°C 72% 1.0 mph WSW1.6 kmh WSW 1.0 mph1.6 kmh 30.44 in1030.8 mb 0.00 in0.0 mm 0.00 in0.0 mm 0.34 in8.6 mm
10:30 PM 30.4°F-0.9°C 23.1°F-4.9°C 74% Calm Calm -- 30.44 in1030.8 mb 0.00 in0.0 mm 0.00 in0.0 mm 0.34 in8.6 mm
10:45 PM 30.8°F-0.7°C 23.8°F-4.6°C 75% Calm Calm -- 30.45 in1031.2 mb 0.00 in0.0 mm 0.00 in0.0 mm 0.34 in8.6 mm
11:00 PM 30.7°F-0.7°C 23.7°F-4.6°C 75% Calm Calm -- 30.45 in1031.2 mb 0.00 in0.0 mm 0.00 in0.0 mm 0.34 in8.6 mm
11:15 PM 30.3°F-0.9°C 23.3°F-4.8°C 75% Calm Calm -- 30.46 in1031.5 mb 0.00 in0.0 mm 0.00 in0.0 mm 0.34 in8.6 mm
11:30 PM 29.4°F-1.4°C 22.5°F-5.3°C 75% Calm Calm -- 30.46 in1031.5 mb 0.00 in0.0 mm 0.00 in0.0 mm 0.34 in8.6 mm
11:45 PM 28.9°F-1.7°C 22.6°F-5.2°C 77% 1.0 mph WSW1.6 kmh WSW 3.0 mph4.8 kmh 30.46 in1031.5 mb 0.00 in0.0 mm 0.00 in0.0 mm 0.34 in8.6 mm